TimeEST,TemperatureF,Dew PointF,Humidity,Sea Level PressureIn,VisibilityMPH,Wind Direction,Wind SpeedMPH,Gust SpeedMPH,PrecipitationIn,Events,Conditions,WindDirDegrees,DateUTC
12:15 AM,32.0,24.8,75,30.08,10.0,Calm,Calm,-,N/A,,Overcast,0,2012-02-14 05:15:00
12:35 AM,32.0,24.8,75,30.08,10.0,Calm,Calm,-,N/A,,Overcast,0,2012-02-14 05:35:00
12:55 AM,32.0,23.0,69,30.07,10.0,Calm,Calm,-,N/A,,Overcast,0,2012-02-14 05:55:00
1:15 AM,32.0,26.6,80,30.07,10.0,Calm,Calm,-,N/A,,Overcast,0,2012-02-14 06:15:00
1:35 AM,32.0,23.0,69,30.07,10.0,NW,3.5,-,N/A,,Overcast,310,2012-02-14 06:35:00
1:55 AM,32.0,24.8,75,30.07,10.0,Calm,Calm,-,N/A,,Overcast,0,2012-02-14 06:55:00
2:15 AM,32.0,26.6,80,30.06,10.0,Calm,Calm,-,N/A,,Overcast,0,2012-02-14 07:15:00
2:35 AM,32.0,24.8,75,30.06,10.0,Calm,Calm,-,N/A,,Overcast,0,2012-02-14 07:35:00
2:55 AM,32.0,26.6,80,30.05,10.0,Calm,Calm,-,N/A,,Overcast,0,2012-02-14 07:55:00
3:15 AM,32.0,26.6,80,30.05,10.0,Calm,Calm,-,N/A,,Overcast,0,2012-02-14 08:15:00
3:35 AM,32.0,26.6,80,30.05,10.0,Calm,Calm,-,N/A,,Overcast,0,2012-02-14 08:35:00
3:55 AM,32.0,24.8,75,30.05,10.0,Calm,Calm,-,N/A,,Overcast,0,2012-02-14 08:55:00
4:15 AM,33.8,23.0,65,30.04,10.0,Calm,Calm,-,N/A,,Overcast,0,2012-02-14 09:15:00
4:35 AM,32.0,24.8,75,30.05,10.0,Calm,Calm,-,N/A,,Overcast,0,2012-02-14 09:35:00
4:55 AM,32.0,26.6,80,30.04,10.0,Calm,Calm,-,N/A,,Overcast,0,2012-02-14 09:55:00
5:15 AM,32.0,26.6,80,30.04,10.0,Calm,Calm,-,N/A,,Overcast,0,2012-02-14 10:15:00
5:35 AM,32.0,26.6,80,30.04,10.0,NW,3.5,-,N/A,,Overcast,310,2012-02-14 10:35:00
5:55 AM,32.0,26.6,80,30.04,10.0,Calm,Calm,-,N/A,,Overcast,0,2012-02-14 10:55:00
6:15 AM,32.0,26.6,80,30.04,10.0,Calm,Calm,-,N/A,,Overcast,0,2012-02-14 11:15:00
6:35 AM,32.0,26.6,80,30.04,10.0,Calm,Calm,-,N/A,,Overcast,0,2012-02-14 11:35:00
6:55 AM,32.0,26.6,80,30.03,10.0,Calm,Calm,-,N/A,,Overcast,0,2012-02-14 11:55:00
7:15 AM,32.0,26.6,80,30.04,10.0,Calm,Calm,-,N/A,,Overcast,0,2012-02-14 12:15:00
7:35 AM,32.0,26.6,80,30.04,10.0,Calm,Calm,-,N/A,,Overcast,0,2012-02-14 12:35:00
7:55 AM,32.0,26.6,80,30.04,10.0,Calm,Calm,-,N/A,,Overcast,0,2012-02-14 12:55:00
8:15 AM,33.8,26.6,75,30.05,10.0,Calm,Calm,-,N/A,,Overcast,0,2012-02-14 13:15:00
8:55 AM,35.6,26.6,70,30.05,10.0,Calm,Calm,-,N/A,,Overcast,0,2012-02-14 13:55:00
9:15 AM,35.6,26.6,70,30.05,10.0,Calm,Calm,-,N/A,,Overcast,0,2012-02-14 14:15:00
9:35 AM,37.4,24.8,60,30.04,10.0,Calm,Calm,-,N/A,,Mostly Cloudy,0,2012-02-14 14:35:00
9:55 AM,37.4,26.6,65,30.04,10.0,Calm,Calm,-,N/A,,Mostly Cloudy,0,2012-02-14 14:55:00
10:15 AM,39.2,23.0,52,30.03,10.0,Calm,Calm,-,N/A,,Scattered Clouds,0,2012-02-14 15:15:00
10:35 AM,39.2,23.0,52,30.03,10.0,Calm,Calm,-,N/A,,Scattered Clouds,0,2012-02-14 15:35:00
10:55 AM,41.0,24.8,53,30.02,10.0,Calm,Calm,-,N/A,,Scattered Clouds,0,2012-02-14 15:55:00
11:15 AM,41.0,24.8,53,30.01,10.0,Calm,Calm,-,N/A,,Clear,0,2012-02-14 16:15:00
11:35 AM,42.8,23.0,46,30.00,10.0,Calm,Calm,-,N/A,,Scattered Clouds,0,2012-02-14 16:35:00
11:55 AM,44.6,26.6,49,29.98,10.0,Calm,Calm,-,N/A,,Mostly Cloudy,0,2012-02-14 16:55:00
12:15 PM,46.4,26.6,46,29.96,10.0,ESE,3.5,-,N/A,,Scattered Clouds,120,2012-02-14 17:15:00
12:35 PM,48.2,26.6,43,29.95,10.0,SSW,6.9,-,N/A,,Mostly Cloudy,200,2012-02-14 17:35:00
12:55 PM,46.4,26.6,46,29.94,10.0,South,5.8,-,N/A,,Mostly Cloudy,190,2012-02-14 17:55:00
1:15 PM,48.2,26.6,43,29.94,10.0,South,4.6,-,N/A,,Scattered Clouds,170,2012-02-14 18:15:00
1:35 PM,50.0,26.6,40,29.93,10.0,SW,6.9,-,N/A,,Scattered Clouds,230,2012-02-14 18:35:00
1:55 PM,48.2,26.6,43,29.92,10.0,SSE,8.1,-,N/A,,Clear,160,2012-02-14 18:55:00
2:15 PM,48.2,28.4,46,29.93,10.0,South,4.6,-,N/A,,Clear,170,2012-02-14 19:15:00
2:35 PM,48.2,26.6,43,29.92,10.0,SSE,5.8,-,N/A,,Scattered Clouds,150,2012-02-14 19:35:00
2:55 PM,48.2,26.6,43,29.92,10.0,South,6.9,-,N/A,,Scattered Clouds,180,2012-02-14 19:55:00
3:15 PM,48.2,28.4,46,29.92,10.0,SE,8.1,-,N/A,,Scattered Clouds,130,2012-02-14 20:15:00
3:35 PM,48.2,28.4,46,29.92,10.0,SE,5.8,-,N/A,,Scattered Clouds,130,2012-02-14 20:35:00
3:55 PM,48.2,28.4,46,29.92,10.0,ESE,4.6,-,N/A,,Scattered Clouds,120,2012-02-14 20:55:00
4:15 PM,48.2,28.4,46,29.92,10.0,SE,5.8,-,N/A,,Scattered Clouds,130,2012-02-14 21:15:00
4:35 PM,46.4,28.4,50,29.92,10.0,SE,3.5,-,N/A,,Mostly Cloudy,130,2012-02-14 21:35:00
4:55 PM,46.4,28.4,50,29.92,10.0,East,3.5,-,N/A,,Overcast,90,2012-02-14 21:55:00
5:15 PM,46.4,28.4,50,29.93,10.0,Calm,Calm,-,N/A,,Overcast,0,2012-02-14 22:15:00
5:35 PM,46.4,28.4,50,29.93,10.0,Calm,Calm,-,N/A,,Overcast,0,2012-02-14 22:35:00
5:55 PM,44.6,30.2,57,29.94,10.0,Calm,Calm,-,N/A,,Mostly Cloudy,0,2012-02-14 22:55:00
6:15 PM,44.6,28.4,53,29.94,10.0,NE,4.6,-,N/A,,Mostly Cloudy,40,2012-02-14 23:15:00
6:35 PM,44.6,28.4,53,29.94,10.0,ENE,4.6,-,N/A,,Overcast,60,2012-02-14 23:35:00
6:55 PM,42.8,30.2,61,29.96,10.0,Calm,Calm,-,N/A,,Overcast,0,2012-02-14 23:55:00
7:15 PM,42.8,28.4,57,29.96,10.0,Calm,Calm,-,N/A,,Overcast,0,2012-02-15 00:15:00
7:35 PM,41.0,30.2,65,29.96,10.0,North,6.9,-,N/A,,Overcast,10,2012-02-15 00:35:00
7:55 PM,42.8,28.4,57,29.97,10.0,North,4.6,-,N/A,,Overcast,360,2012-02-15 00:55:00
8:15 PM,42.8,28.4,57,29.97,10.0,North,5.8,-,N/A,,Overcast,10,2012-02-15 01:15:00
8:35 PM,41.0,28.4,61,29.98,10.0,North,3.5,-,N/A,,Overcast,350,2012-02-15 01:35:00
8:55 PM,41.0,30.2,65,29.98,10.0,Calm,Calm,-,N/A,,Overcast,0,2012-02-15 01:55:00
9:15 PM,41.0,30.2,65,29.99,10.0,WNW,3.5,-,N/A,,Overcast,300,2012-02-15 02:15:00
9:35 PM,41.0,30.2,65,29.99,10.0,North,4.6,-,N/A,,Overcast,350,2012-02-15 02:35:00
9:55 PM,41.0,30.2,65,30.00,10.0,NW,3.5,-,N/A,,Overcast,320,2012-02-15 02:55:00
10:15 PM,41.0,28.4,61,30.00,10.0,NW,5.8,-,N/A,,Overcast,320,2012-02-15 03:15:00
10:35 PM,41.0,28.4,61,30.00,10.0,NW,5.8,-,N/A,,Overcast,320,2012-02-15 03:35:00
10:55 PM,41.0,30.2,65,30.01,10.0,NNW,4.6,-,N/A,,Overcast,330,2012-02-15 03:55:00
11:15 PM,41.0,30.2,65,30.01,10.0,NNW,5.8,-,N/A,,Overcast,330,2012-02-15 04:15:00
11:35 PM,41.0,30.2,65,30.02,10.0,NNW,4.6,-,N/A,,Overcast,340,2012-02-15 04:35:00
11:55 PM,41.0,30.2,65,30.02,10.0,NW,6.9,-,N/A,,Overcast,320,2012-02-15 04:55:00